sensor_id;sensor_type;location;lat;lon;timestamp;temperature;humidity
7720;DHT22;3902;49.474;8.616;2023-01-28T00:02:07;5.10;99.90
7720;DHT22;3902;49.474;8.616;2023-01-28T00:04:33;5.10;99.90
7720;DHT22;3902;49.474;8.616;2023-01-28T00:06:58;5.10;99.90
7720;DHT22;3902;49.474;8.616;2023-01-28T00:09:24;5.10;99.90
7720;DHT22;3902;49.474;8.616;2023-01-28T00:11:49;5.20;99.90
7720;DHT22;3902;49.474;8.616;2023-01-28T00:14:15;5.10;99.90
7720;DHT22;3902;49.474;8.616;2023-01-28T00:16:41;5.10;99.90
7720;DHT22;3902;49.474;8.616;2023-01-28T00:19:06;5.10;99.90
7720;DHT22;3902;49.474;8.616;2023-01-28T00:21:32;5.00;99.90
7720;DHT22;3902;49.474;8.616;2023-01-28T00:23:58;5.10;99.90
7720;DHT22;3902;49.474;8.616;2023-01-28T00:26:24;5.10;99.90
7720;DHT22;3902;49.474;8.616;2023-01-28T00:28:50;5.10;99.90
7720;DHT22;3902;49.474;8.616;2023-01-28T00:31:16;5.10;99.90
7720;DHT22;3902;49.474;8.616;2023-01-28T00:33:44;5.10;99.90
7720;DHT22;3902;49.474;8.616;2023-01-28T00:36:10;5.10;99.90
7720;DHT22;3902;49.474;8.616;2023-01-28T00:38:36;5.10;99.90
7720;DHT22;3902;49.474;8.616;2023-01-28T00:41:13;5.10;99.90
7720;DHT22;3902;49.474;8.616;2023-01-28T00:43:40;5.10;99.90
7720;DHT22;3902;49.474;8.616;2023-01-28T00:46:07;5.10;99.90
7720;DHT22;3902;49.474;8.616;2023-01-28T00:48:34;5.10;99.90
7720;DHT22;3902;49.474;8.616;2023-01-28T00:50:59;5.10;99.90
7720;DHT22;3902;49.474;8.616;2023-01-28T00:53:25;5.10;99.90
7720;DHT22;3902;49.474;8.616;2023-01-28T00:55:51;5.10;99.90
7720;DHT22;3902;49.474;8.616;2023-01-28T00:58:17;5.10;99.90
7720;DHT22;3902;49.474;8.616;2023-01-28T01:00:42;5.10;99.90
7720;DHT22;3902;49.474;8.616;2023-01-28T01:03:08;5.10;99.90
7720;DHT22;3902;49.474;8.616;2023-01-28T01:05:33;5.10;99.90
7720;DHT22;3902;49.474;8.616;2023-01-28T01:07:59;5.10;99.90
7720;DHT22;3902;49.474;8.616;2023-01-28T01:10:25;5.10;99.90
7720;DHT22;3902;49.474;8.616;2023-01-28T01:12:50;5.00;99.90
7720;DHT22;3902;49.474;8.616;2023-01-28T01:15:17;5.00;99.90
7720;DHT22;3902;49.474;8.616;2023-01-28T01:17:46;5.00;99.90
7720;DHT22;3902;49.474;8.616;2023-01-28T01:20:14;5.00;99.90
7720;DHT22;3902;49.474;8.616;2023-01-28T01:22:40;5.00;99.90
7720;DHT22;3902;49.474;8.616;2023-01-28T01:25:06;5.00;99.90
7720;DHT22;3902;49.474;8.616;2023-01-28T01:27:32;5.00;99.90
7720;DHT22;3902;49.474;8.616;2023-01-28T01:29:57;5.00;99.90
7720;DHT22;3902;49.474;8.616;2023-01-28T01:32:24;5.00;99.90
7720;DHT22;3902;49.474;8.616;2023-01-28T01:34:50;5.00;99.90
7720;DHT22;3902;49.474;8.616;2023-01-28T01:37:16;5.00;99.90
7720;DHT22;3902;49.474;8.616;2023-01-28T01:39:41;5.00;99.90
7720;DHT22;3902;49.474;8.616;2023-01-28T01:42:13;5.00;99.90
7720;DHT22;3902;49.474;8.616;2023-01-28T01:45:03;5.00;99.90
7720;DHT22;3902;49.474;8.616;2023-01-28T01:50:21;5.00;99.90
7720;DHT22;3902;49.474;8.616;2023-01-28T01:52:50;5.00;99.90
7720;DHT22;3902;49.474;8.616;2023-01-28T01:55:19;4.90;99.90
7720;DHT22;3902;49.474;8.616;2023-01-28T01:57:47;5.00;99.90
7720;DHT22;3902;49.474;8.616;2023-01-28T02:00:15;5.00;99.90
7720;DHT22;3902;49.474;8.616;2023-01-28T02:02:45;4.90;99.90
7720;DHT22;3902;49.474;8.616;2023-01-28T02:05:13;4.90;99.90
7720;DHT22;3902;49.474;8.616;2023-01-28T02:07:39;4.90;99.90
7720;DHT22;3902;49.474;8.616;2023-01-28T02:10:07;4.90;99.90
7720;DHT22;3902;49.474;8.616;2023-01-28T02:12:55;5.00;99.90
7720;DHT22;3902;49.474;8.616;2023-01-28T02:15:23;4.90;99.90
7720;DHT22;3902;49.474;8.616;2023-01-28T02:17:50;4.90;99.90
7720;DHT22;3902;49.474;8.616;2023-01-28T02:20:21;4.90;99.90
7720;DHT22;3902;49.474;8.616;2023-01-28T02:31:19;4.90;99.90
7720;DHT22;3902;49.474;8.616;2023-01-28T02:36:55;5.00;99.90
7720;DHT22;3902;49.474;8.616;2023-01-28T02:39:33;4.90;99.90
7720;DHT22;3902;49.474;8.616;2023-01-28T02:42:16;4.90;99.90
7720;DHT22;3902;49.474;8.616;2023-01-28T02:44:42;4.90;99.90
7720;DHT22;3902;49.474;8.616;2023-01-28T02:47:12;4.90;99.90
7720;DHT22;3902;49.474;8.616;2023-01-28T02:49:59;4.90;99.90
7720;DHT22;3902;49.474;8.616;2023-01-28T02:55:38;4.80;99.90
7720;DHT22;3902;49.474;8.616;2023-01-28T02:58:32;4.90;99.90
7720;DHT22;3902;49.474;8.616;2023-01-28T03:03:47;4.80;99.90
7720;DHT22;3902;49.474;8.616;2023-01-28T03:06:18;4.80;99.90
7720;DHT22;3902;49.474;8.616;2023-01-28T03:08:49;4.80;99.90
7720;DHT22;3902;49.474;8.616;2023-01-28T03:11:38;4.80;99.90
7720;DHT22;3902;49.474;8.616;2023-01-28T03:14:24;4.80;99.90
7720;DHT22;3902;49.474;8.616;2023-01-28T03:17:14;4.80;99.90
7720;DHT22;3902;49.474;8.616;2023-01-28T03:20:00;4.80;99.90
7720;DHT22;3902;49.474;8.616;2023-01-28T03:22:45;4.80;99.90
7720;DHT22;3902;49.474;8.616;2023-01-28T03:25:34;4.80;99.90
7720;DHT22;3902;49.474;8.616;2023-01-28T03:28:19;4.70;99.90
7720;DHT22;3902;49.474;8.616;2023-01-28T03:31:15;4.80;99.90
7720;DHT22;3902;49.474;8.616;2023-01-28T03:34:01;4.80;99.90
7720;DHT22;3902;49.474;8.616;2023-01-28T03:36:46;4.80;99.90
7720;DHT22;3902;49.474;8.616;2023-01-28T03:39:16;4.80;99.90
7720;DHT22;3902;49.474;8.616;2023-01-28T03:41:43;4.80;99.90
7720;DHT22;3902;49.474;8.616;2023-01-28T03:44:19;4.80;99.90
7720;DHT22;3902;49.474;8.616;2023-01-28T03:47:03;4.80;99.90
7720;DHT22;3902;49.474;8.616;2023-01-28T03:49:31;4.70;99.90
7720;DHT22;3902;49.474;8.616;2023-01-28T03:51:56;4.70;99.90
7720;DHT22;3902;49.474;8.616;2023-01-28T03:54:22;4.70;99.90
7720;DHT22;3902;49.474;8.616;2023-01-28T03:56:48;4.70;99.90
7720;DHT22;3902;49.474;8.616;2023-01-28T03:59:13;4.70;99.90
7720;DHT22;3902;49.474;8.616;2023-01-28T04:01:39;4.70;99.90
7720;DHT22;3902;49.474;8.616;2023-01-28T04:04:05;4.70;99.90
7720;DHT22;3902;49.474;8.616;2023-01-28T04:06:30;4.70;99.90
7720;DHT22;3902;49.474;8.616;2023-01-28T04:08:56;4.70;99.90
7720;DHT22;3902;49.474;8.616;2023-01-28T04:11:24;4.70;99.90
7720;DHT22;3902;49.474;8.616;2023-01-28T04:13:50;4.70;99.90
7720;DHT22;3902;49.474;8.616;2023-01-28T04:16:17;4.70;99.90
7720;DHT22;3902;49.474;8.616;2023-01-28T04:18:44;4.70;99.90
7720;DHT22;3902;49.474;8.616;2023-01-28T04:21:10;4.70;99.90
7720;DHT22;3902;49.474;8.616;2023-01-28T04:23:36;4.70;99.90
7720;DHT22;3902;49.474;8.616;2023-01-28T04:26:02;4.70;99.90
7720;DHT22;3902;49.474;8.616;2023-01-28T04:28:29;4.70;99.90
7720;DHT22;3902;49.474;8.616;2023-01-28T04:30:54;4.70;99.90
7720;DHT22;3902;49.474;8.616;2023-01-28T04:33:20;4.70;99.90
7720;DHT22;3902;49.474;8.616;2023-01-28T04:35:45;4.70;99.90
7720;DHT22;3902;49.474;8.616;2023-01-28T04:38:11;4.60;99.90
7720;DHT22;3902;49.474;8.616;2023-01-28T04:40:36;4.70;99.90
7720;DHT22;3902;49.474;8.616;2023-01-28T04:43:02;4.70;99.90
7720;DHT22;3902;49.474;8.616;2023-01-28T04:45:27;4.70;99.90
7720;DHT22;3902;49.474;8.616;2023-01-28T04:47:53;4.70;99.90
7720;DHT22;3902;49.474;8.616;2023-01-28T04:50:19;4.70;99.90
7720;DHT22;3902;49.474;8.616;2023-01-28T04:52:44;4.70;99.90
7720;DHT22;3902;49.474;8.616;2023-01-28T04:55:10;4.60;99.90
7720;DHT22;3902;49.474;8.616;2023-01-28T04:57:35;4.70;99.90
7720;DHT22;3902;49.474;8.616;2023-01-28T05:00:02;4.70;99.90
7720;DHT22;3902;49.474;8.616;2023-01-28T05:02:28;4.70;99.90
7720;DHT22;3902;49.474;8.616;2023-01-28T05:04:53;4.70;99.90
7720;DHT22;3902;49.474;8.616;2023-01-28T05:07:19;4.70;99.90
7720;DHT22;3902;49.474;8.616;2023-01-28T05:09:44;4.70;99.90
7720;DHT22;3902;49.474;8.616;2023-01-28T05:12:10;4.70;99.90
7720;DHT22;3902;49.474;8.616;2023-01-28T05:14:35;4.70;99.90
7720;DHT22;3902;49.474;8.616;2023-01-28T05:17:01;4.70;99.90
7720;DHT22;3902;49.474;8.616;2023-01-28T05:19:26;4.70;99.90
7720;DHT22;3902;49.474;8.616;2023-01-28T05:21:51;4.70;99.90
7720;DHT22;3902;49.474;8.616;2023-01-28T05:24:17;4.70;99.90
7720;DHT22;3902;49.474;8.616;2023-01-28T05:26:42;4.70;99.90
7720;DHT22;3902;49.474;8.616;2023-01-28T05:29:08;4.70;99.90
7720;DHT22;3902;49.474;8.616;2023-01-28T05:31:34;4.70;99.90
7720;DHT22;3902;49.474;8.616;2023-01-28T05:33:59;4.70;99.90
7720;DHT22;3902;49.474;8.616;2023-01-28T05:36:25;4.70;99.90
7720;DHT22;3902;49.474;8.616;2023-01-28T05:38:50;4.70;99.90
7720;DHT22;3902;49.474;8.616;2023-01-28T05:41:16;4.70;99.90
7720;DHT22;3902;49.474;8.616;2023-01-28T05:43:42;4.60;99.90
7720;DHT22;3902;49.474;8.616;2023-01-28T05:46:07;4.70;99.90
7720;DHT22;3902;49.474;8.616;2023-01-28T05:48:33;4.70;99.90
7720;DHT22;3902;49.474;8.616;2023-01-28T05:50:58;4.70;99.90
7720;DHT22;3902;49.474;8.616;2023-01-28T05:53:24;4.70;99.90
7720;DHT22;3902;49.474;8.616;2023-01-28T05:55:51;4.70;99.90
7720;DHT22;3902;49.474;8.616;2023-01-28T05:58:18;4.70;99.90
7720;DHT22;3902;49.474;8.616;2023-01-28T06:00:44;4.70;99.90
7720;DHT22;3902;49.474;8.616;2023-01-28T06:03:09;4.60;99.90
7720;DHT22;3902;49.474;8.616;2023-01-28T06:05:35;4.70;99.90
7720;DHT22;3902;49.474;8.616;2023-01-28T06:08:00;4.70;99.90
7720;DHT22;3902;49.474;8.616;2023-01-28T06:10:26;4.70;99.90
7720;DHT22;3902;49.474;8.616;2023-01-28T06:12:51;4.70;99.90
7720;DHT22;3902;49.474;8.616;2023-01-28T06:15:17;4.70;99.90
7720;DHT22;3902;49.474;8.616;2023-01-28T06:17:42;4.60;99.90
7720;DHT22;3902;49.474;8.616;2023-01-28T06:20:09;4.70;99.90
7720;DHT22;3902;49.474;8.616;2023-01-28T06:22:34;4.60;99.90
7720;DHT22;3902;49.474;8.616;2023-01-28T06:25:00;4.70;99.90
7720;DHT22;3902;49.474;8.616;2023-01-28T06:27:25;4.70;99.90
7720;DHT22;3902;49.474;8.616;2023-01-28T06:29:52;4.70;99.90
7720;DHT22;3902;49.474;8.616;2023-01-28T06:32:17;4.70;99.90
7720;DHT22;3902;49.474;8.616;2023-01-28T06:34:43;4.70;99.90
7720;DHT22;3902;49.474;8.616;2023-01-28T06:37:14;4.70;99.90
7720;DHT22;3902;49.474;8.616;2023-01-28T06:39:40;4.70;99.90
7720;DHT22;3902;49.474;8.616;2023-01-28T06:42:05;4.70;99.90
7720;DHT22;3902;49.474;8.616;2023-01-28T06:44:31;4.70;99.90
7720;DHT22;3902;49.474;8.616;2023-01-28T06:46:56;4.70;99.90
7720;DHT22;3902;49.474;8.616;2023-01-28T06:49:22;4.70;99.90
7720;DHT22;3902;49.474;8.616;2023-01-28T06:51:47;4.70;99.90
7720;DHT22;3902;49.474;8.616;2023-01-28T06:54:13;4.70;99.90
7720;DHT22;3902;49.474;8.616;2023-01-28T06:56:38;4.70;99.90
7720;DHT22;3902;49.474;8.616;2023-01-28T06:59:04;4.70;99.90
7720;DHT22;3902;49.474;8.616;2023-01-28T07:01:29;4.70;99.90
7720;DHT22;3902;49.474;8.616;2023-01-28T07:03:55;4.70;99.90
7720;DHT22;3902;49.474;8.616;2023-01-28T07:06:21;4.70;99.90
7720;DHT22;3902;49.474;8.616;2023-01-28T07:08:46;4.70;99.90
7720;DHT22;3902;49.474;8.616;2023-01-28T07:11:12;4.70;99.90
7720;DHT22;3902;49.474;8.616;2023-01-28T07:13:37;4.70;99.90
7720;DHT22;3902;49.474;8.616;2023-01-28T07:16:03;4.70;99.90
7720;DHT22;3902;49.474;8.616;2023-01-28T07:18:29;4.70;99.90
7720;DHT22;3902;49.474;8.616;2023-01-28T07:20:55;4.80;99.90
7720;DHT22;3902;49.474;8.616;2023-01-28T07:23:21;4.80;99.90
7720;DHT22;3902;49.474;8.616;2023-01-28T07:25:46;4.80;99.90
7720;DHT22;3902;49.474;8.616;2023-01-28T07:28:12;4.80;99.90
7720;DHT22;3902;49.474;8.616;2023-01-28T07:30:37;4.80;99.90
7720;DHT22;3902;49.474;8.616;2023-01-28T07:33:03;4.80;99.90
7720;DHT22;3902;49.474;8.616;2023-01-28T07:35:30;4.80;99.90
7720;DHT22;3902;49.474;8.616;2023-01-28T07:37:58;4.80;99.90
7720;DHT22;3902;49.474;8.616;2023-01-28T07:40:25;4.80;99.90
7720;DHT22;3902;49.474;8.616;2023-01-28T07:42:50;4.80;99.90
7720;DHT22;3902;49.474;8.616;2023-01-28T07:45:17;4.80;99.90
7720;DHT22;3902;49.474;8.616;2023-01-28T07:47:42;4.80;99.90
7720;DHT22;3902;49.474;8.616;2023-01-28T07:50:11;4.80;99.90
7720;DHT22;3902;49.474;8.616;2023-01-28T07:52:37;4.80;99.90
7720;DHT22;3902;49.474;8.616;2023-01-28T07:55:10;4.80;99.90
7720;DHT22;3902;49.474;8.616;2023-01-28T07:57:36;4.80;99.90
7720;DHT22;3902;49.474;8.616;2023-01-28T08:00:02;4.80;99.90
7720;DHT22;3902;49.474;8.616;2023-01-28T08:02:27;4.80;99.90
7720;DHT22;3902;49.474;8.616;2023-01-28T08:04:54;4.80;99.90
7720;DHT22;3902;49.474;8.616;2023-01-28T08:07:23;4.80;99.90
7720;DHT22;3902;49.474;8.616;2023-01-28T08:09:50;4.80;99.90
7720;DHT22;3902;49.474;8.616;2023-01-28T08:12:15;4.80;99.90
7720;DHT22;3902;49.474;8.616;2023-01-28T08:14:41;4.80;99.90
7720;DHT22;3902;49.474;8.616;2023-01-28T08:17:07;4.80;99.90
7720;DHT22;3902;49.474;8.616;2023-01-28T08:19:32;4.80;99.90
7720;DHT22;3902;49.474;8.616;2023-01-28T08:21:57;4.80;99.90
7720;DHT22;3902;49.474;8.616;2023-01-28T08:24:23;4.80;99.90
7720;DHT22;3902;49.474;8.616;2023-01-28T08:26:48;4.80;99.90
7720;DHT22;3902;49.474;8.616;2023-01-28T08:29:14;4.80;99.90
7720;DHT22;3902;49.474;8.616;2023-01-28T08:31:40;4.80;99.90
7720;DHT22;3902;49.474;8.616;2023-01-28T08:34:05;4.80;99.90
7720;DHT22;3902;49.474;8.616;2023-01-28T08:36:31;4.80;99.90
7720;DHT22;3902;49.474;8.616;2023-01-28T08:38:56;4.80;99.90
7720;DHT22;3902;49.474;8.616;2023-01-28T08:41:22;4.80;99.90
7720;DHT22;3902;49.474;8.616;2023-01-28T08:43:48;4.80;99.90
7720;DHT22;3902;49.474;8.616;2023-01-28T08:46:13;4.90;99.90
7720;DHT22;3902;49.474;8.616;2023-01-28T08:48:39;4.90;99.90
7720;DHT22;3902;49.474;8.616;2023-01-28T08:51:05;4.90;99.90
7720;DHT22;3902;49.474;8.616;2023-01-28T08:53:30;4.80;99.90
7720;DHT22;3902;49.474;8.616;2023-01-28T08:55:56;4.90;99.90
7720;DHT22;3902;49.474;8.616;2023-01-28T08:58:22;4.90;99.90
7720;DHT22;3902;49.474;8.616;2023-01-28T09:00:48;4.90;99.90
7720;DHT22;3902;49.474;8.616;2023-01-28T09:03:14;4.90;99.90
7720;DHT22;3902;49.474;8.616;2023-01-28T09:05:40;4.90;99.90
7720;DHT22;3902;49.474;8.616;2023-01-28T09:08:08;4.90;99.90
7720;DHT22;3902;49.474;8.616;2023-01-28T09:10:33;5.00;99.90
7720;DHT22;3902;49.474;8.616;2023-01-28T09:13:07;5.00;99.90
7720;DHT22;3902;49.474;8.616;2023-01-28T09:15:34;5.00;99.90
7720;DHT22;3902;49.474;8.616;2023-01-28T09:18:00;5.00;99.90
7720;DHT22;3902;49.474;8.616;2023-01-28T09:20:26;5.00;99.90
7720;DHT22;3902;49.474;8.616;2023-01-28T09:22:51;5.10;99.90
7720;DHT22;3902;49.474;8.616;2023-01-28T09:25:17;5.10;99.90
7720;DHT22;3902;49.474;8.616;2023-01-28T09:27:42;5.10;99.90
7720;DHT22;3902;49.474;8.616;2023-01-28T09:30:08;5.10;99.90
7720;DHT22;3902;49.474;8.616;2023-01-28T09:32:35;5.20;99.90
7720;DHT22;3902;49.474;8.616;2023-01-28T09:35:01;5.20;99.90
7720;DHT22;3902;49.474;8.616;2023-01-28T09:37:26;5.20;99.90
7720;DHT22;3902;49.474;8.616;2023-01-28T09:39:52;5.30;99.90
7720;DHT22;3902;49.474;8.616;2023-01-28T09:45:34;5.40;99.90
7720;DHT22;3902;49.474;8.616;2023-01-28T09:48:02;5.40;99.90
7720;DHT22;3902;49.474;8.616;2023-01-28T09:50:33;5.40;99.90
7720;DHT22;3902;49.474;8.616;2023-01-28T09:55:39;5.40;99.90
7720;DHT22;3902;49.474;8.616;2023-01-28T09:58:10;5.40;99.90
7720;DHT22;3902;49.474;8.616;2023-01-28T10:00:56;5.50;99.90
7720;DHT22;3902;49.474;8.616;2023-01-28T10:04:10;5.40;99.90
7720;DHT22;3902;49.474;8.616;2023-01-28T10:09:33;5.50;99.90
7720;DHT22;3902;49.474;8.616;2023-01-28T10:12:24;5.50;99.90
7720;DHT22;3902;49.474;8.616;2023-01-28T10:14:54;5.50;99.90
7720;DHT22;3902;49.474;8.616;2023-01-28T10:17:44;5.40;99.90
7720;DHT22;3902;49.474;8.616;2023-01-28T10:25:16;5.50;99.90
7720;DHT22;3902;49.474;8.616;2023-01-28T10:27:43;5.50;99.90
7720;DHT22;3902;49.474;8.616;2023-01-28T10:30:19;5.50;99.90
7720;DHT22;3902;49.474;8.616;2023-01-28T10:33:28;5.50;99.90
7720;DHT22;3902;49.474;8.616;2023-01-28T10:35:55;5.50;99.90
7720;DHT22;3902;49.474;8.616;2023-01-28T10:38:25;5.60;99.90
7720;DHT22;3902;49.474;8.616;2023-01-28T10:40:51;5.50;99.90
7720;DHT22;3902;49.474;8.616;2023-01-28T10:43:24;5.60;99.90
7720;DHT22;3902;49.474;8.616;2023-01-28T10:46:02;5.60;99.90
7720;DHT22;3902;49.474;8.616;2023-01-28T10:48:32;5.50;99.90
7720;DHT22;3902;49.474;8.616;2023-01-28T10:51:01;5.60;99.90
7720;DHT22;3902;49.474;8.616;2023-01-28T10:53:37;5.50;99.90
7720;DHT22;3902;49.474;8.616;2023-01-28T10:56:15;5.50;99.90
7720;DHT22;3902;49.474;8.616;2023-01-28T10:59:18;5.50;99.90
7720;DHT22;3902;49.474;8.616;2023-01-28T11:01:51;5.60;99.90
7720;DHT22;3902;49.474;8.616;2023-01-28T11:04:29;5.60;99.90
7720;DHT22;3902;49.474;8.616;2023-01-28T11:07:00;5.50;99.90
7720;DHT22;3902;49.474;8.616;2023-01-28T11:09:36;5.60;99.90
7720;DHT22;3902;49.474;8.616;2023-01-28T11:12:17;5.60;99.90
7720;DHT22;3902;49.474;8.616;2023-01-28T11:14:54;5.60;99.90
7720;DHT22;3902;49.474;8.616;2023-01-28T11:17:22;5.60;99.90
7720;DHT22;3902;49.474;8.616;2023-01-28T11:19:51;5.60;99.90
7720;DHT22;3902;49.474;8.616;2023-01-28T11:22:34;5.60;99.90
7720;DHT22;3902;49.474;8.616;2023-01-28T11:25:03;5.60;99.90
7720;DHT22;3902;49.474;8.616;2023-01-28T11:27:31;5.60;99.90
7720;DHT22;3902;49.474;8.616;2023-01-28T11:29:59;5.60;99.90
7720;DHT22;3902;49.474;8.616;2023-01-28T11:32:28;5.60;99.90
7720;DHT22;3902;49.474;8.616;2023-01-28T11:34:55;5.60;99.90
7720;DHT22;3902;49.474;8.616;2023-01-28T11:37:29;5.60;99.90
7720;DHT22;3902;49.474;8.616;2023-01-28T11:40:16;5.60;99.90
7720;DHT22;3902;49.474;8.616;2023-01-28T11:42:45;5.60;99.90
7720;DHT22;3902;49.474;8.616;2023-01-28T11:48:11;5.60;99.90
7720;DHT22;3902;49.474;8.616;2023-01-28T11:50:55;5.60;99.90
7720;DHT22;3902;49.474;8.616;2023-01-28T11:56:19;5.60;99.90
7720;DHT22;3902;49.474;8.616;2023-01-28T12:01:56;5.60;99.90
7720;DHT22;3902;49.474;8.616;2023-01-28T12:04:47;5.60;99.90
7720;DHT22;3902;49.474;8.616;2023-01-28T12:10:04;5.60;99.90
7720;DHT22;3902;49.474;8.616;2023-01-28T12:13:07;5.70;99.90
7720;DHT22;3902;49.474;8.616;2023-01-28T12:19:04;5.70;99.90
7720;DHT22;3902;49.474;8.616;2023-01-28T12:21:53;5.60;99.90
7720;DHT22;3902;49.474;8.616;2023-01-28T12:24:48;5.60;99.90
7720;DHT22;3902;49.474;8.616;2023-01-28T12:27:31;5.70;99.90
7720;DHT22;3902;49.474;8.616;2023-01-28T12:35:43;5.70;99.90
7720;DHT22;3902;49.474;8.616;2023-01-28T12:43:47;5.70;99.90
7720;DHT22;3902;49.474;8.616;2023-01-28T12:49:04;5.70;99.90
7720;DHT22;3902;49.474;8.616;2023-01-28T12:51:48;5.70;99.90
7720;DHT22;3902;49.474;8.616;2023-01-28T12:54:33;5.70;99.90
7720;DHT22;3902;49.474;8.616;2023-01-28T12:57:00;5.70;99.90
7720;DHT22;3902;49.474;8.616;2023-01-28T12:59:38;5.70;99.90
7720;DHT22;3902;49.474;8.616;2023-01-28T13:04:43;5.70;99.90
7720;DHT22;3902;49.474;8.616;2023-01-28T13:10:01;5.70;99.90
7720;DHT22;3902;49.474;8.616;2023-01-28T13:12:29;5.70;99.90
7720;DHT22;3902;49.474;8.616;2023-01-28T13:14:57;5.70;99.90
7720;DHT22;3902;49.474;8.616;2023-01-28T13:17:29;5.70;99.90
7720;DHT22;3902;49.474;8.616;2023-01-28T13:19:55;5.60;99.90
7720;DHT22;3902;49.474;8.616;2023-01-28T13:22:33;5.60;99.90
7720;DHT22;3902;49.474;8.616;2023-01-28T13:25:20;5.60;99.90
7720;DHT22;3902;49.474;8.616;2023-01-28T13:28:00;5.60;99.90
7720;DHT22;3902;49.474;8.616;2023-01-28T13:30:31;5.50;99.90
7720;DHT22;3902;49.474;8.616;2023-01-28T13:33:24;5.50;99.90
7720;DHT22;3902;49.474;8.616;2023-01-28T13:35:52;5.50;99.90
7720;DHT22;3902;49.474;8.616;2023-01-28T13:38:20;5.50;99.90
7720;DHT22;3902;49.474;8.616;2023-01-28T13:40:57;5.50;99.90
7720;DHT22;3902;49.474;8.616;2023-01-28T13:46:01;5.50;99.90
7720;DHT22;3902;49.474;8.616;2023-01-28T13:48:32;5.50;99.90
7720;DHT22;3902;49.474;8.616;2023-01-28T13:50:59;5.50;99.90
7720;DHT22;3902;49.474;8.616;2023-01-28T13:53:40;5.40;99.90
7720;DHT22;3902;49.474;8.616;2023-01-28T13:56:20;5.50;99.90
7720;DHT22;3902;49.474;8.616;2023-01-28T14:10:08;5.40;99.90
7720;DHT22;3902;49.474;8.616;2023-01-28T14:12:49;5.40;99.90
7720;DHT22;3902;49.474;8.616;2023-01-28T14:18:40;5.50;99.90
7720;DHT22;3902;49.474;8.616;2023-01-28T14:21:15;5.40;99.90
7720;DHT22;3902;49.474;8.616;2023-01-28T14:23:50;5.40;99.90
7720;DHT22;3902;49.474;8.616;2023-01-28T14:26:51;5.40;99.90
7720;DHT22;3902;49.474;8.616;2023-01-28T14:29:46;5.40;99.90
7720;DHT22;3902;49.474;8.616;2023-01-28T14:32:21;5.40;99.90
7720;DHT22;3902;49.474;8.616;2023-01-28T14:34:48;5.40;99.90
7720;DHT22;3902;49.474;8.616;2023-01-28T14:37:17;5.30;99.90
7720;DHT22;3902;49.474;8.616;2023-01-28T14:39:52;5.30;99.90
7720;DHT22;3902;49.474;8.616;2023-01-28T14:42:22;5.30;99.90
7720;DHT22;3902;49.474;8.616;2023-01-28T14:44:53;5.20;99.90
7720;DHT22;3902;49.474;8.616;2023-01-28T14:50:48;5.20;99.90
7720;DHT22;3902;49.474;8.616;2023-01-28T14:56:10;5.20;99.90
7720;DHT22;3902;49.474;8.616;2023-01-28T14:58:47;5.10;99.90
7720;DHT22;3902;49.474;8.616;2023-01-28T15:01:25;5.10;99.90
7720;DHT22;3902;49.474;8.616;2023-01-28T15:03:52;5.10;99.90
7720;DHT22;3902;49.474;8.616;2023-01-28T15:06:20;5.00;99.90
7720;DHT22;3902;49.474;8.616;2023-01-28T15:08:48;5.00;99.90
7720;DHT22;3902;49.474;8.616;2023-01-28T15:11:18;5.10;99.90
7720;DHT22;3902;49.474;8.616;2023-01-28T15:13:47;5.00;99.90
7720;DHT22;3902;49.474;8.616;2023-01-28T15:16:19;5.00;99.90
7720;DHT22;3902;49.474;8.616;2023-01-28T15:18:46;5.00;99.90
7720;DHT22;3902;49.474;8.616;2023-01-28T15:21:13;5.00;99.90
7720;DHT22;3902;49.474;8.616;2023-01-28T15:23:41;5.00;99.90
7720;DHT22;3902;49.474;8.616;2023-01-28T15:26:19;5.00;99.90
7720;DHT22;3902;49.474;8.616;2023-01-28T15:28:46;4.80;99.90
7720;DHT22;3902;49.474;8.616;2023-01-28T15:31:22;4.90;99.90
7720;DHT22;3902;49.474;8.616;2023-01-28T15:34:09;4.90;99.90
7720;DHT22;3902;49.474;8.616;2023-01-28T15:36:36;4.90;99.90
7720;DHT22;3902;49.474;8.616;2023-01-28T15:39:02;4.80;99.90
7720;DHT22;3902;49.474;8.616;2023-01-28T15:41:37;4.90;99.90
7720;DHT22;3902;49.474;8.616;2023-01-28T15:44:03;4.90;99.90
7720;DHT22;3902;49.474;8.616;2023-01-28T15:46:29;4.90;99.90
7720;DHT22;3902;49.474;8.616;2023-01-28T15:49:00;4.90;99.90
7720;DHT22;3902;49.474;8.616;2023-01-28T15:51:31;4.90;99.90
7720;DHT22;3902;49.474;8.616;2023-01-28T15:54:03;4.80;99.90
7720;DHT22;3902;49.474;8.616;2023-01-28T15:56:30;4.80;99.90
7720;DHT22;3902;49.474;8.616;2023-01-28T15:59:26;4.80;99.90
7720;DHT22;3902;49.474;8.616;2023-01-28T16:04:40;4.80;99.90
7720;DHT22;3902;49.474;8.616;2023-01-28T16:07:06;4.80;99.90
7720;DHT22;3902;49.474;8.616;2023-01-28T16:09:33;4.80;99.90
7720;DHT22;3902;49.474;8.616;2023-01-28T16:12:11;4.80;99.90
7720;DHT22;3902;49.474;8.616;2023-01-28T16:14:43;4.80;99.90
7720;DHT22;3902;49.474;8.616;2023-01-28T16:17:14;4.80;99.90
7720;DHT22;3902;49.474;8.616;2023-01-28T16:19:43;4.70;99.90
7720;DHT22;3902;49.474;8.616;2023-01-28T16:22:45;4.80;99.90
7720;DHT22;3902;49.474;8.616;2023-01-28T16:25:26;4.80;99.90
7720;DHT22;3902;49.474;8.616;2023-01-28T16:27:52;4.80;99.90
7720;DHT22;3902;49.474;8.616;2023-01-28T16:30:18;4.70;99.90
7720;DHT22;3902;49.474;8.616;2023-01-28T16:32:44;4.70;99.90
7720;DHT22;3902;49.474;8.616;2023-01-28T16:37:47;4.70;99.90
7720;DHT22;3902;49.474;8.616;2023-01-28T16:40:15;4.70;99.90
7720;DHT22;3902;49.474;8.616;2023-01-28T16:42:41;4.70;99.90
7720;DHT22;3902;49.474;8.616;2023-01-28T16:45:20;4.70;99.90
7720;DHT22;3902;49.474;8.616;2023-01-28T16:47:46;4.70;99.90
7720;DHT22;3902;49.474;8.616;2023-01-28T16:50:13;4.70;99.90
7720;DHT22;3902;49.474;8.616;2023-01-28T16:52:40;4.60;99.90
7720;DHT22;3902;49.474;8.616;2023-01-28T16:55:13;4.60;99.90
7720;DHT22;3902;49.474;8.616;2023-01-28T16:57:39;4.60;99.90
7720;DHT22;3902;49.474;8.616;2023-01-28T17:00:06;4.60;99.90
7720;DHT22;3902;49.474;8.616;2023-01-28T17:02:32;4.60;99.90
7720;DHT22;3902;49.474;8.616;2023-01-28T17:04:58;4.60;99.90
7720;DHT22;3902;49.474;8.616;2023-01-28T17:07:23;4.60;99.90
7720;DHT22;3902;49.474;8.616;2023-01-28T17:09:49;4.50;99.90
7720;DHT22;3902;49.474;8.616;2023-01-28T17:12:14;4.50;99.90
7720;DHT22;3902;49.474;8.616;2023-01-28T17:14:40;4.50;99.90
7720;DHT22;3902;49.474;8.616;2023-01-28T17:17:05;4.40;99.90
7720;DHT22;3902;49.474;8.616;2023-01-28T17:19:31;4.50;99.90
7720;DHT22;3902;49.474;8.616;2023-01-28T17:21:59;4.40;99.90
7720;DHT22;3902;49.474;8.616;2023-01-28T17:24:25;4.40;99.90
7720;DHT22;3902;49.474;8.616;2023-01-28T17:26:51;4.40;99.90
7720;DHT22;3902;49.474;8.616;2023-01-28T17:29:17;4.40;99.90
7720;DHT22;3902;49.474;8.616;2023-01-28T17:31:42;4.40;99.90
7720;DHT22;3902;49.474;8.616;2023-01-28T17:34:08;4.40;99.90
7720;DHT22;3902;49.474;8.616;2023-01-28T17:36:35;4.40;99.90
7720;DHT22;3902;49.474;8.616;2023-01-28T17:39:01;4.40;99.90
7720;DHT22;3902;49.474;8.616;2023-01-28T17:41:27;4.40;99.90
7720;DHT22;3902;49.474;8.616;2023-01-28T17:43:54;4.40;99.90
7720;DHT22;3902;49.474;8.616;2023-01-28T17:46:21;4.40;99.90
7720;DHT22;3902;49.474;8.616;2023-01-28T17:48:46;4.30;99.90
7720;DHT22;3902;49.474;8.616;2023-01-28T17:51:12;4.40;99.90
7720;DHT22;3902;49.474;8.616;2023-01-28T17:53:38;4.40;99.90
7720;DHT22;3902;49.474;8.616;2023-01-28T17:56:04;4.40;99.90
7720;DHT22;3902;49.474;8.616;2023-01-28T17:58:31;4.30;99.90
7720;DHT22;3902;49.474;8.616;2023-01-28T18:00:56;4.30;99.90
7720;DHT22;3902;49.474;8.616;2023-01-28T18:03:22;4.30;99.90
7720;DHT22;3902;49.474;8.616;2023-01-28T18:05:58;4.30;99.90
7720;DHT22;3902;49.474;8.616;2023-01-28T18:08:23;4.30;99.90
7720;DHT22;3902;49.474;8.616;2023-01-28T18:10:49;4.30;99.90
7720;DHT22;3902;49.474;8.616;2023-01-28T18:13:14;4.30;99.90